• Join FlightAware (Why Join?)
  • Login
  • US Flag 
12:51AM EDT


 

Airport Tracker/Info


-or-


 

Live Flight TrackerFlight Track Log ✈ EJA941 ✈ 01-May-2013 ✈ KBKL - KMSL

Flight Track Log - Related Links

Times and Time Zones

All times are in EDT time to prevent confusion due to time zone crossing. See the EJA941 flight status page for this flight to view local times or setup timezone preferences in your user account.

Time Position Orientation Groundspeed Altitude Reporting Facility
EDT Latitude Longitude Course Direction KTS MPH feet Rate Location/Type
01:23PM 41.5061 -81.7339 333° Northwest 194 223 1,900  Level Cleveland Center
01:23PM 41.5517 -81.7650 333° Northwest 229 264 2,000 1,200 Climbing Cleveland Center
01:25PM 41.6239 -81.8331 325° Northwest 239 275 4,700 2,700 Climbing Cleveland Center
01:26PM 41.6375 -81.9111 283° West 223 257 8,500 3,180 Climbing Cleveland Center
01:27PM 41.5950 -81.9853 233° Southwest 210 242 11,100 1,740 Climbing Cleveland Center
01:28PM 41.5353 -82.0756 229° Southwest 264 304 12,100 1,560 Climbing Cleveland Center
01:29PM 41.4572 -82.1625 220° Southwest 362 417 14,300 2,160 Climbing Cleveland Center
01:30PM 41.3744 -82.2544 220° Southwest 385 443 16,500 1,800 Climbing Cleveland Center
01:31PM 41.3003 -82.3356 219° Southwest 390 449 17,900 1,200 Climbing Cleveland Center
01:32PM 41.2114 -82.4297 219° Southwest 407 468 19,000 1,260 Climbing Cleveland Center
01:33PM 41.1178 -82.5289 219° Southwest 425 489 20,500 1,380 Climbing Cleveland Center
01:34PM 41.0244 -82.6281 219° Southwest 436 502 21,800 1,200 Climbing Cleveland Center
01:35PM 40.9267 -82.7350 220° Southwest 455 524 22,900 1,620 Climbing Cleveland Center
01:37PM 40.7672 -82.9028 219° Southwest 445 512 26,200 1,860 Climbing Indianapolis Center
01:38PM 40.6675 -83.0072 218° Southwest 453 521 28,100 1,920 Climbing Indianapolis Center
01:39PM 40.5497 -83.1314 219° Southwest 460 529 30,200 1,740 Climbing Indianapolis Center
01:40PM 40.4603 -83.2264 219° Southwest 469 540 31,700 1,680 Climbing Indianapolis Center
01:41PM 40.3367 -83.3539 218° Southwest 480 552 33,700 1,560 Climbing Indianapolis Center
01:42PM 40.2286 -83.4656 218° Southwest 492 566 35,000 1,320 Climbing Indianapolis Center
01:43PM 40.1206 -83.5786 219° Southwest 506 582 36,500 1,260 Climbing Indianapolis Center
01:44PM 40.0106 -83.6922 218° Southwest 496 571 37,700 720 Climbing Indianapolis Center
01:45PM 39.9003 -83.8053 218° Southwest 506 582 38,000 120 Climbing Indianapolis Center
01:46PM 39.7697 -83.9358 218° Southwest 508 585 38,000  Level Indianapolis Center
01:47PM 39.6606 -84.0467 218° Southwest 498 573 38,000  Level Indianapolis Center
01:48PM 39.5511 -84.1572 218° Southwest 496 571 38,000  Level Indianapolis Center
01:49PM 39.4425 -84.2667 218° Southwest 493 567 38,000  Level Indianapolis Center
01:50PM 39.3344 -84.3756 218° Southwest 489 563 38,000  Level Indianapolis Center
01:51PM 39.2264 -84.4831 218° Southwest 486 559 38,000  Level Indianapolis Center
01:52PM 39.1189 -84.5881 217° Southwest 482 555 38,000  Level Indianapolis Center
01:53PM 39.0119 -84.6953 218° Southwest 483 556 38,000  Level Indianapolis Center
01:54PM 38.8978 -84.8081 218° Southwest 483 556 38,000  Level Indianapolis Center
01:55PM 38.7911 -84.9133 218° Southwest 481 554 38,000  Level Indianapolis Center
01:56PM 38.6836 -85.0164 217° Southwest 478 550 38,000  Level Indianapolis Center
01:57PM 38.5739 -85.1239 217° Southwest 477 549 38,000  Level Indianapolis Center
01:58PM 38.4494 -85.2444 217° Southwest 478 550 38,000  Level Indianapolis Center
01:59PM 38.3444 -85.3458 217° Southwest 472 543 38,000  Level Indianapolis Center
02:00PM 38.2353 -85.4503 217° Southwest 482 555 38,000  Level Indianapolis Center
02:01PM 38.1289 -85.5517 217° Southwest 480 552 38,000  Level Indianapolis Center
02:02PM 38.0089 -85.6314 208° Southwest 483 556 38,000  Level Indianapolis Center
02:03PM 37.8861 -85.7031 205° Southwest 483 556 38,000  Level Indianapolis Center
02:04PM 37.7631 -85.7733 204° Southwest 481 554 38,000  Level Indianapolis Center
02:05PM 37.6406 -85.8439 205° Southwest 480 552 38,000  Level Indianapolis Center
02:06PM 37.5006 -85.9247 205° Southwest 476 548 38,000  Level Indianapolis Center
02:08PM 37.3769 -85.9947 204° Southwest 481 554 38,000  Level Indianapolis Center
02:09PM 37.2536 -86.0656 205° Southwest 481 554 38,000  Level Indianapolis Center
02:10PM 37.1289 -86.1336 204° Southwest 485 558 38,000  Level Indianapolis Center
02:11PM 37.0053 -86.2039 204° Southwest 483 556 38,000  Level Indianapolis Center
02:12PM 36.8811 -86.2733 204° Southwest 482 555 38,000  Level Indianapolis Center
02:13PM 36.7381 -86.3517 204° Southwest 486 559 38,000 -240 Level Memphis Center
02:14PM 36.6314 -86.4061 202° Southwest 486 559 37,600 -1,080 Descending Memphis Center
02:15PM 36.4961 -86.4100 181° South 474 545 35,900 -1,320 Descending Memphis Center
02:16PM 36.3583 -86.4117 181° South 497 572 35,000 -480 Descending Memphis Center
02:17PM 36.2064 -86.4189 182° South 502 578 35,000  Level Memphis Center
02:18PM 36.0650 -86.4233 181° South 502 578 35,000 -300 Level Memphis Center
02:19PM 35.9275 -86.4325 183° South 502 578 34,400 -1,680 Descending Memphis Center
02:20PM 35.8133 -86.5147 210° Southwest 463 533 31,700 -2,820 Descending Memphis Center
02:21PM 35.7039 -86.6144 217° Southwest 479 551 28,800 -2,760 Descending Memphis Center
02:22PM 35.5900 -86.7164 216° Southwest 504 580 26,200 -2,400 Descending Memphis Center
02:23PM 35.4803 -86.8156 216° Southwest 504 580 24,100 -2,100 Descending Memphis Center
02:24PM 35.3867 -86.8986 216° Southwest 487 560 22,100 -2,220 Descending Memphis Center
02:25PM 35.2936 -87.0017 222° Southwest 473 544 19,700 -2,160 Descending Memphis Center
02:26PM 35.2006 -87.1069 223° Southwest 461 531 17,800 -2,100 Descending Memphis Center
02:27PM 35.1172 -87.1992 222° Southwest 440 506 15,500 -2,280 Descending Memphis Center
02:28PM 35.0403 -87.2858 223° Southwest 411 473 13,300 -2,100 Descending Memphis Center
02:29PM 34.9731 -87.3617 223° Southwest 367 422 11,400 -2,040 Descending Memphis Center
02:30PM 34.9144 -87.4297 224° Southwest 326 375 9,300 -2,520 Descending Memphis Center
02:31PM 34.8553 -87.4897 220° Southwest 300 345 6,400 -2,700 Descending Memphis Center
02:32PM 34.8086 -87.5444 224° Southwest 266 306 3,900 -1,980 Descending Memphis Center
02:33PM 34.7847 -87.6033 244° Southwest 239 275 2,500 -1,440 Descending Memphis Center